sensor_id;sensor_type;location;lat;lon;timestamp;temperature;humidity
45643;DHT22;31358;46.008;11.144;2023-07-09T00:00:12;21.10;99.90
45643;DHT22;31358;46.008;11.144;2023-07-09T00:02:39;21.20;99.90
45643;DHT22;31358;46.008;11.144;2023-07-09T00:05:07;21.20;99.90
45643;DHT22;31358;46.008;11.144;2023-07-09T00:07:36;21.10;99.90
45643;DHT22;31358;46.008;11.144;2023-07-09T00:10:02;21.10;99.90
45643;DHT22;31358;46.008;11.144;2023-07-09T00:12:28;21.20;99.90
45643;DHT22;31358;46.008;11.144;2023-07-09T00:14:54;21.30;99.90
45643;DHT22;31358;46.008;11.144;2023-07-09T00:17:27;21.40;99.90
45643;DHT22;31358;46.008;11.144;2023-07-09T00:19:53;21.50;99.90
45643;DHT22;31358;46.008;11.144;2023-07-09T00:22:19;21.10;99.90
45643;DHT22;31358;46.008;11.144;2023-07-09T00:24:50;21.00;99.90
45643;DHT22;31358;46.008;11.144;2023-07-09T00:27:21;21.00;99.90
45643;DHT22;31358;46.008;11.144;2023-07-09T00:29:47;20.90;99.90
45643;DHT22;31358;46.008;11.144;2023-07-09T00:32:14;20.80;99.90
45643;DHT22;31358;46.008;11.144;2023-07-09T00:34:44;20.80;99.90
45643;DHT22;31358;46.008;11.144;2023-07-09T00:37:15;20.80;99.90
45643;DHT22;31358;46.008;11.144;2023-07-09T00:39:41;20.80;99.90
45643;DHT22;31358;46.008;11.144;2023-07-09T00:42:12;20.80;99.90
45643;DHT22;31358;46.008;11.144;2023-07-09T00:44:44;20.80;99.90
45643;DHT22;31358;46.008;11.144;2023-07-09T00:47:23;20.90;99.90
45643;DHT22;31358;46.008;11.144;2023-07-09T00:49:59;20.80;99.90
45643;DHT22;31358;46.008;11.144;2023-07-09T00:52:35;20.90;99.90
45643;DHT22;31358;46.008;11.144;2023-07-09T00:55:08;20.90;99.90
45643;DHT22;31358;46.008;11.144;2023-07-09T00:57:37;20.90;99.90
45643;DHT22;31358;46.008;11.144;2023-07-09T01:00:07;20.90;99.90
45643;DHT22;31358;46.008;11.144;2023-07-09T01:02:36;20.80;99.90
45643;DHT22;31358;46.008;11.144;2023-07-09T01:05:02;20.70;99.90
45643;DHT22;31358;46.008;11.144;2023-07-09T01:07:30;20.60;99.90
45643;DHT22;31358;46.008;11.144;2023-07-09T01:09:56;20.80;99.90
45643;DHT22;31358;46.008;11.144;2023-07-09T01:12:22;20.70;99.90
45643;DHT22;31358;46.008;11.144;2023-07-09T01:14:52;20.60;99.90
45643;DHT22;31358;46.008;11.144;2023-07-09T01:17:19;20.50;99.90
45643;DHT22;31358;46.008;11.144;2023-07-09T01:19:49;20.30;99.90
45643;DHT22;31358;46.008;11.144;2023-07-09T01:22:17;20.10;99.90
45643;DHT22;31358;46.008;11.144;2023-07-09T01:25:00;20.10;99.90
45643;DHT22;31358;46.008;11.144;2023-07-09T01:27:34;20.30;99.90
45643;DHT22;31358;46.008;11.144;2023-07-09T01:30:03;20.20;99.90
45643;DHT22;31358;46.008;11.144;2023-07-09T01:32:29;20.10;99.90
45643;DHT22;31358;46.008;11.144;2023-07-09T01:34:59;20.20;99.90
45643;DHT22;31358;46.008;11.144;2023-07-09T01:37:31;20.20;99.90
45643;DHT22;31358;46.008;11.144;2023-07-09T01:39:57;20.30;99.90
45643;DHT22;31358;46.008;11.144;2023-07-09T01:42:25;20.20;99.90
45643;DHT22;31358;46.008;11.144;2023-07-09T01:44:54;20.10;99.90
45643;DHT22;31358;46.008;11.144;2023-07-09T01:47:20;20.00;99.90
45643;DHT22;31358;46.008;11.144;2023-07-09T01:49:46;20.30;99.90
45643;DHT22;31358;46.008;11.144;2023-07-09T01:52:14;20.60;99.90
45643;DHT22;31358;46.008;11.144;2023-07-09T01:54:42;20.40;99.90
45643;DHT22;31358;46.008;11.144;2023-07-09T01:59:51;20.10;99.90
45643;DHT22;31358;46.008;11.144;2023-07-09T02:02:19;19.90;99.90
45643;DHT22;31358;46.008;11.144;2023-07-09T02:04:48;20.10;99.90
45643;DHT22;31358;46.008;11.144;2023-07-09T02:07:15;20.20;99.90
45643;DHT22;31358;46.008;11.144;2023-07-09T02:09:41;20.20;99.90
45643;DHT22;31358;46.008;11.144;2023-07-09T02:12:08;20.20;99.90
45643;DHT22;31358;46.008;11.144;2023-07-09T02:14:35;20.00;99.90
45643;DHT22;31358;46.008;11.144;2023-07-09T02:17:00;20.00;99.90
45643;DHT22;31358;46.008;11.144;2023-07-09T02:19:28;20.00;99.90
45643;DHT22;31358;46.008;11.144;2023-07-09T02:21:55;19.90;99.90
45643;DHT22;31358;46.008;11.144;2023-07-09T02:24:21;19.90;99.90
45643;DHT22;31358;46.008;11.144;2023-07-09T02:26:53;20.00;99.90
45643;DHT22;31358;46.008;11.144;2023-07-09T02:29:19;20.10;99.90
45643;DHT22;31358;46.008;11.144;2023-07-09T02:31:45;20.10;99.90
45643;DHT22;31358;46.008;11.144;2023-07-09T02:34:11;20.00;99.90
45643;DHT22;31358;46.008;11.144;2023-07-09T02:36:37;20.10;99.90
45643;DHT22;31358;46.008;11.144;2023-07-09T02:39:02;20.20;99.90
45643;DHT22;31358;46.008;11.144;2023-07-09T02:41:28;20.10;99.90
45643;DHT22;31358;46.008;11.144;2023-07-09T02:43:54;19.80;99.90
45643;DHT22;31358;46.008;11.144;2023-07-09T02:46:20;19.90;99.90
45643;DHT22;31358;46.008;11.144;2023-07-09T02:48:45;19.90;99.90
45643;DHT22;31358;46.008;11.144;2023-07-09T02:51:11;19.80;99.90
45643;DHT22;31358;46.008;11.144;2023-07-09T02:53:36;19.60;99.90
45643;DHT22;31358;46.008;11.144;2023-07-09T02:56:02;19.80;99.90
45643;DHT22;31358;46.008;11.144;2023-07-09T02:58:28;20.00;99.90
45643;DHT22;31358;46.008;11.144;2023-07-09T03:00:53;20.00;99.90
45643;DHT22;31358;46.008;11.144;2023-07-09T03:03:20;19.90;99.90
45643;DHT22;31358;46.008;11.144;2023-07-09T03:05:46;19.80;99.90
45643;DHT22;31358;46.008;11.144;2023-07-09T03:08:13;19.80;99.90
45643;DHT22;31358;46.008;11.144;2023-07-09T03:10:40;20.10;99.90
45643;DHT22;31358;46.008;11.144;2023-07-09T03:13:06;20.00;99.90
45643;DHT22;31358;46.008;11.144;2023-07-09T03:15:32;19.90;99.90
45643;DHT22;31358;46.008;11.144;2023-07-09T03:17:57;19.80;99.90
45643;DHT22;31358;46.008;11.144;2023-07-09T03:20:23;19.60;99.90
45643;DHT22;31358;46.008;11.144;2023-07-09T03:22:50;19.40;99.90
45643;DHT22;31358;46.008;11.144;2023-07-09T03:25:16;19.30;99.90
45643;DHT22;31358;46.008;11.144;2023-07-09T03:27:42;19.30;99.90
45643;DHT22;31358;46.008;11.144;2023-07-09T03:30:08;19.30;99.90
45643;DHT22;31358;46.008;11.144;2023-07-09T03:32:33;19.40;99.90
45643;DHT22;31358;46.008;11.144;2023-07-09T03:34:59;19.40;99.90
45643;DHT22;31358;46.008;11.144;2023-07-09T03:37:25;19.40;99.90
45643;DHT22;31358;46.008;11.144;2023-07-09T03:39:50;19.50;99.90
45643;DHT22;31358;46.008;11.144;2023-07-09T03:42:16;19.40;99.90
45643;DHT22;31358;46.008;11.144;2023-07-09T03:44:42;19.50;99.90
45643;DHT22;31358;46.008;11.144;2023-07-09T03:47:08;19.60;99.90
45643;DHT22;31358;46.008;11.144;2023-07-09T03:49:33;19.60;99.90
45643;DHT22;31358;46.008;11.144;2023-07-09T03:51:59;19.70;99.90
45643;DHT22;31358;46.008;11.144;2023-07-09T03:54:25;19.90;99.90
45643;DHT22;31358;46.008;11.144;2023-07-09T03:56:50;20.00;99.90
45643;DHT22;31358;46.008;11.144;2023-07-09T03:59:16;19.90;99.90
45643;DHT22;31358;46.008;11.144;2023-07-09T04:01:42;19.90;99.90
45643;DHT22;31358;46.008;11.144;2023-07-09T04:04:14;19.80;99.90
45643;DHT22;31358;46.008;11.144;2023-07-09T04:06:40;19.90;99.90
45643;DHT22;31358;46.008;11.144;2023-07-09T04:09:05;19.90;99.90
45643;DHT22;31358;46.008;11.144;2023-07-09T04:11:31;19.80;99.90
45643;DHT22;31358;46.008;11.144;2023-07-09T04:13:57;19.70;99.90
45643;DHT22;31358;46.008;11.144;2023-07-09T04:16:22;19.50;99.90
45643;DHT22;31358;46.008;11.144;2023-07-09T04:18:48;19.40;99.90
45643;DHT22;31358;46.008;11.144;2023-07-09T04:21:14;19.20;99.90
45643;DHT22;31358;46.008;11.144;2023-07-09T04:23:40;19.40;99.90
45643;DHT22;31358;46.008;11.144;2023-07-09T04:26:05;19.40;99.90
45643;DHT22;31358;46.008;11.144;2023-07-09T04:28:34;19.40;99.90
45643;DHT22;31358;46.008;11.144;2023-07-09T04:31:00;19.50;99.90
45643;DHT22;31358;46.008;11.144;2023-07-09T04:33:26;19.50;99.90
45643;DHT22;31358;46.008;11.144;2023-07-09T04:35:51;19.50;99.90
45643;DHT22;31358;46.008;11.144;2023-07-09T04:38:17;19.60;99.90
45643;DHT22;31358;46.008;11.144;2023-07-09T04:40:43;19.40;99.90
45643;DHT22;31358;46.008;11.144;2023-07-09T04:43:09;19.30;99.90
45643;DHT22;31358;46.008;11.144;2023-07-09T04:45:35;19.40;99.90
45643;DHT22;31358;46.008;11.144;2023-07-09T04:48:01;19.50;99.90
45643;DHT22;31358;46.008;11.144;2023-07-09T04:50:26;19.60;99.90
45643;DHT22;31358;46.008;11.144;2023-07-09T04:52:52;19.60;99.90
45643;DHT22;31358;46.008;11.144;2023-07-09T04:55:18;19.60;99.90
45643;DHT22;31358;46.008;11.144;2023-07-09T04:57:45;19.70;99.90
45643;DHT22;31358;46.008;11.144;2023-07-09T05:00:11;19.60;99.90
45643;DHT22;31358;46.008;11.144;2023-07-09T05:02:37;19.70;99.90
45643;DHT22;31358;46.008;11.144;2023-07-09T05:05:03;19.90;99.90
45643;DHT22;31358;46.008;11.144;2023-07-09T05:07:28;20.00;99.90
45643;DHT22;31358;46.008;11.144;2023-07-09T05:09:54;20.10;99.90
45643;DHT22;31358;46.008;11.144;2023-07-09T05:12:20;20.10;99.90
45643;DHT22;31358;46.008;11.144;2023-07-09T05:14:46;20.20;99.90
45643;DHT22;31358;46.008;11.144;2023-07-09T05:17:12;20.20;99.90
45643;DHT22;31358;46.008;11.144;2023-07-09T05:19:38;20.30;99.90
45643;DHT22;31358;46.008;11.144;2023-07-09T05:22:04;20.10;99.90
45643;DHT22;31358;46.008;11.144;2023-07-09T05:24:30;20.40;99.90
45643;DHT22;31358;46.008;11.144;2023-07-09T05:26:55;20.30;99.90
45643;DHT22;31358;46.008;11.144;2023-07-09T05:29:21;20.10;99.90
45643;DHT22;31358;46.008;11.144;2023-07-09T05:31:47;20.20;99.90
45643;DHT22;31358;46.008;11.144;2023-07-09T05:34:13;20.30;99.90
45643;DHT22;31358;46.008;11.144;2023-07-09T05:36:39;20.40;99.90
45643;DHT22;31358;46.008;11.144;2023-07-09T05:39:04;20.30;99.90
45643;DHT22;31358;46.008;11.144;2023-07-09T05:41:30;20.50;99.90
45643;DHT22;31358;46.008;11.144;2023-07-09T05:43:56;20.60;99.90
45643;DHT22;31358;46.008;11.144;2023-07-09T05:46:22;20.70;99.90
45643;DHT22;31358;46.008;11.144;2023-07-09T05:48:48;20.70;99.90
45643;DHT22;31358;46.008;11.144;2023-07-09T05:51:14;20.70;99.90
45643;DHT22;31358;46.008;11.144;2023-07-09T05:53:40;20.80;99.90
45643;DHT22;31358;46.008;11.144;2023-07-09T05:56:06;20.90;99.90
45643;DHT22;31358;46.008;11.144;2023-07-09T05:58:32;21.00;99.90
45643;DHT22;31358;46.008;11.144;2023-07-09T06:00:58;21.10;99.90
45643;DHT22;31358;46.008;11.144;2023-07-09T06:03:26;21.10;99.90
45643;DHT22;31358;46.008;11.144;2023-07-09T06:05:52;21.20;99.90
45643;DHT22;31358;46.008;11.144;2023-07-09T06:08:19;21.20;99.90
45643;DHT22;31358;46.008;11.144;2023-07-09T06:10:56;21.20;99.90
45643;DHT22;31358;46.008;11.144;2023-07-09T06:13:23;21.20;99.90
45643;DHT22;31358;46.008;11.144;2023-07-09T06:15:51;21.20;99.90
45643;DHT22;31358;46.008;11.144;2023-07-09T06:18:16;21.20;99.90
45643;DHT22;31358;46.008;11.144;2023-07-09T06:20:48;21.30;99.90
45643;DHT22;31358;46.008;11.144;2023-07-09T06:23:14;21.50;99.90
45643;DHT22;31358;46.008;11.144;2023-07-09T06:25:40;21.50;99.90
45643;DHT22;31358;46.008;11.144;2023-07-09T06:28:05;21.50;99.90
45643;DHT22;31358;46.008;11.144;2023-07-09T06:30:31;21.50;99.90
45643;DHT22;31358;46.008;11.144;2023-07-09T06:32:57;21.50;99.90
45643;DHT22;31358;46.008;11.144;2023-07-09T06:35:22;21.60;99.90
45643;DHT22;31358;46.008;11.144;2023-07-09T06:37:48;21.70;99.90
45643;DHT22;31358;46.008;11.144;2023-07-09T06:40:14;21.70;99.90
45643;DHT22;31358;46.008;11.144;2023-07-09T06:42:39;21.70;99.90
45643;DHT22;31358;46.008;11.144;2023-07-09T06:45:05;21.70;99.90
45643;DHT22;31358;46.008;11.144;2023-07-09T06:47:31;21.70;99.90
45643;DHT22;31358;46.008;11.144;2023-07-09T06:49:57;21.80;99.90
45643;DHT22;31358;46.008;11.144;2023-07-09T06:52:22;21.80;99.90
45643;DHT22;31358;46.008;11.144;2023-07-09T06:54:48;21.90;99.90
45643;DHT22;31358;46.008;11.144;2023-07-09T06:57:14;22.10;99.90
45643;DHT22;31358;46.008;11.144;2023-07-09T06:59:40;22.20;99.90
45643;DHT22;31358;46.008;11.144;2023-07-09T07:02:06;22.40;99.90
45643;DHT22;31358;46.008;11.144;2023-07-09T07:04:31;22.60;99.90
45643;DHT22;31358;46.008;11.144;2023-07-09T07:06:58;22.80;99.90
45643;DHT22;31358;46.008;11.144;2023-07-09T07:09:23;23.00;99.90
45643;DHT22;31358;46.008;11.144;2023-07-09T07:11:50;23.30;99.90
45643;DHT22;31358;46.008;11.144;2023-07-09T07:14:16;23.50;99.90
45643;DHT22;31358;46.008;11.144;2023-07-09T07:16:41;23.60;99.90
45643;DHT22;31358;46.008;11.144;2023-07-09T07:19:07;23.90;99.90
45643;DHT22;31358;46.008;11.144;2023-07-09T07:21:33;24.10;99.90
45643;DHT22;31358;46.008;11.144;2023-07-09T07:23:58;24.30;99.90
45643;DHT22;31358;46.008;11.144;2023-07-09T07:26:24;24.30;99.90
45643;DHT22;31358;46.008;11.144;2023-07-09T07:28:50;24.40;99.90
45643;DHT22;31358;46.008;11.144;2023-07-09T07:31:16;24.70;99.90
45643;DHT22;31358;46.008;11.144;2023-07-09T07:33:42;25.00;99.90
45643;DHT22;31358;46.008;11.144;2023-07-09T07:36:08;25.90;99.90
45643;DHT22;31358;46.008;11.144;2023-07-09T07:38:34;27.00;99.30
45643;DHT22;31358;46.008;11.144;2023-07-09T07:41:03;28.00;97.40
45643;DHT22;31358;46.008;11.144;2023-07-09T07:43:29;29.20;96.00
45643;DHT22;31358;46.008;11.144;2023-07-09T07:45:54;30.10;95.50
45643;DHT22;31358;46.008;11.144;2023-07-09T07:48:20;30.50;94.80
45643;DHT22;31358;46.008;11.144;2023-07-09T07:50:46;30.70;94.20
45643;DHT22;31358;46.008;11.144;2023-07-09T07:53:14;30.70;94.30
45643;DHT22;31358;46.008;11.144;2023-07-09T07:55:40;30.30;93.30
45643;DHT22;31358;46.008;11.144;2023-07-09T07:58:08;30.30;94.10
45643;DHT22;31358;46.008;11.144;2023-07-09T08:00:34;29.90;94.30
45643;DHT22;31358;46.008;11.144;2023-07-09T08:03:00;29.40;94.50
45643;DHT22;31358;46.008;11.144;2023-07-09T08:05:26;28.50;95.30
45643;DHT22;31358;46.008;11.144;2023-07-09T08:07:52;28.20;96.20
45643;DHT22;31358;46.008;11.144;2023-07-09T08:10:18;28.00;96.10
45643;DHT22;31358;46.008;11.144;2023-07-09T08:12:44;28.10;96.00
45643;DHT22;31358;46.008;11.144;2023-07-09T08:15:10;28.10;96.00
45643;DHT22;31358;46.008;11.144;2023-07-09T08:17:35;27.60;96.00
45643;DHT22;31358;46.008;11.144;2023-07-09T08:20:01;27.00;96.60
45643;DHT22;31358;46.008;11.144;2023-07-09T08:22:27;27.20;96.70
45643;DHT22;31358;46.008;11.144;2023-07-09T08:24:52;27.20;97.90
45643;DHT22;31358;46.008;11.144;2023-07-09T08:27:19;27.20;97.40
45643;DHT22;31358;46.008;11.144;2023-07-09T08:29:45;26.50;96.90
45643;DHT22;31358;46.008;11.144;2023-07-09T08:32:11;26.90;97.20
45643;DHT22;31358;46.008;11.144;2023-07-09T08:34:38;26.90;97.00
45643;DHT22;31358;46.008;11.144;2023-07-09T08:37:05;27.10;96.90
45643;DHT22;31358;46.008;11.144;2023-07-09T08:39:31;27.30;97.10
45643;DHT22;31358;46.008;11.144;2023-07-09T08:50:15;28.00;96.50
45643;DHT22;31358;46.008;11.144;2023-07-09T08:52:45;27.90;96.00
45643;DHT22;31358;46.008;11.144;2023-07-09T08:55:21;27.80;96.90
45643;DHT22;31358;46.008;11.144;2023-07-09T08:57:54;28.00;96.90
45643;DHT22;31358;46.008;11.144;2023-07-09T09:03:00;28.20;96.20
45643;DHT22;31358;46.008;11.144;2023-07-09T09:05:31;28.20;96.80
45643;DHT22;31358;46.008;11.144;2023-07-09T09:08:04;28.10;96.20
45643;DHT22;31358;46.008;11.144;2023-07-09T09:10:44;28.20;95.90
45643;DHT22;31358;46.008;11.144;2023-07-09T09:13:13;28.30;96.30
45643;DHT22;31358;46.008;11.144;2023-07-09T09:15:42;28.20;95.90
45643;DHT22;31358;46.008;11.144;2023-07-09T09:18:25;28.00;95.90
45643;DHT22;31358;46.008;11.144;2023-07-09T09:21:11;28.20;96.10
45643;DHT22;31358;46.008;11.144;2023-07-09T09:23:45;28.50;95.60
45643;DHT22;31358;46.008;11.144;2023-07-09T09:26:19;28.80;95.40
45643;DHT22;31358;46.008;11.144;2023-07-09T09:28:47;29.00;95.10
45643;DHT22;31358;46.008;11.144;2023-07-09T09:31:12;28.80;95.60
45643;DHT22;31358;46.008;11.144;2023-07-09T09:33:46;28.80;95.50
45643;DHT22;31358;46.008;11.144;2023-07-09T09:36:31;29.10;96.00
45643;DHT22;31358;46.008;11.144;2023-07-09T09:39:01;29.20;95.90
45643;DHT22;31358;46.008;11.144;2023-07-09T09:41:30;29.20;95.70
45643;DHT22;31358;46.008;11.144;2023-07-09T09:43:56;29.70;95.80
45643;DHT22;31358;46.008;11.144;2023-07-09T09:46:24;29.80;95.10
45643;DHT22;31358;46.008;11.144;2023-07-09T09:48:59;29.90;95.00
45643;DHT22;31358;46.008;11.144;2023-07-09T09:51:26;29.80;94.30
45643;DHT22;31358;46.008;11.144;2023-07-09T09:53:58;29.90;95.10
45643;DHT22;31358;46.008;11.144;2023-07-09T09:56:29;29.70;94.30
45643;DHT22;31358;46.008;11.144;2023-07-09T09:58:56;29.70;94.50
45643;DHT22;31358;46.008;11.144;2023-07-09T10:01:30;30.00;95.40
45643;DHT22;31358;46.008;11.144;2023-07-09T10:03:58;29.90;95.00
45643;DHT22;31358;46.008;11.144;2023-07-09T10:06:41;29.90;94.60
45643;DHT22;31358;46.008;11.144;2023-07-09T10:14:31;30.20;94.50
45643;DHT22;31358;46.008;11.144;2023-07-09T10:17:17;30.20;94.70
45643;DHT22;31358;46.008;11.144;2023-07-09T10:22:20;30.50;94.70
45643;DHT22;31358;46.008;11.144;2023-07-09T10:27:28;30.40;94.50
45643;DHT22;31358;46.008;11.144;2023-07-09T10:30:12;30.00;93.80
45643;DHT22;31358;46.008;11.144;2023-07-09T10:40:55;30.30;92.70
45643;DHT22;31358;46.008;11.144;2023-07-09T10:46:36;30.30;94.10
45643;DHT22;31358;46.008;11.144;2023-07-09T10:49:03;30.80;94.20
45643;DHT22;31358;46.008;11.144;2023-07-09T10:51:39;31.00;93.80
45643;DHT22;31358;46.008;11.144;2023-07-09T10:56:59;31.60;94.30
45643;DHT22;31358;46.008;11.144;2023-07-09T10:59:32;31.70;94.70
45643;DHT22;31358;46.008;11.144;2023-07-09T11:04:44;31.40;94.70
45643;DHT22;31358;46.008;11.144;2023-07-09T11:07:14;31.40;94.50
45643;DHT22;31358;46.008;11.144;2023-07-09T11:09:44;31.60;95.00
45643;DHT22;31358;46.008;11.144;2023-07-09T11:12:18;31.80;95.30
45643;DHT22;31358;46.008;11.144;2023-07-09T11:15:04;31.90;95.50
45643;DHT22;31358;46.008;11.144;2023-07-09T11:17:40;31.60;94.60
45643;DHT22;31358;46.008;11.144;2023-07-09T11:20:25;31.60;94.20
45643;DHT22;31358;46.008;11.144;2023-07-09T11:23:05;31.60;94.00
45643;DHT22;31358;46.008;11.144;2023-07-09T11:25:42;31.80;93.80
45643;DHT22;31358;46.008;11.144;2023-07-09T11:28:08;32.10;93.90
45643;DHT22;31358;46.008;11.144;2023-07-09T11:33:29;31.90;94.30
45643;DHT22;31358;46.008;11.144;2023-07-09T11:36:23;31.90;93.40
45643;DHT22;31358;46.008;11.144;2023-07-09T11:38:49;31.90;93.50
45643;DHT22;31358;46.008;11.144;2023-07-09T11:44:26;32.30;94.50
45643;DHT22;31358;46.008;11.144;2023-07-09T11:50:03;32.30;92.90
45643;DHT22;31358;46.008;11.144;2023-07-09T11:52:41;32.30;95.40
45643;DHT22;31358;46.008;11.144;2023-07-09T11:55:28;32.20;93.50
45643;DHT22;31358;46.008;11.144;2023-07-09T11:58:01;32.20;92.70
45643;DHT22;31358;46.008;11.144;2023-07-09T12:00:30;32.20;93.20
45643;DHT22;31358;46.008;11.144;2023-07-09T12:03:00;32.00;92.10
45643;DHT22;31358;46.008;11.144;2023-07-09T12:05:28;32.00;93.10
45643;DHT22;31358;46.008;11.144;2023-07-09T12:07:58;32.50;92.60
45643;DHT22;31358;46.008;11.144;2023-07-09T12:10:33;32.60;91.60
45643;DHT22;31358;46.008;11.144;2023-07-09T12:13:00;32.60;91.90
45643;DHT22;31358;46.008;11.144;2023-07-09T12:15:28;32.60;91.90
45643;DHT22;31358;46.008;11.144;2023-07-09T12:18:02;33.00;92.20
45643;DHT22;31358;46.008;11.144;2023-07-09T12:20:33;33.00;91.70
45643;DHT22;31358;46.008;11.144;2023-07-09T12:22:59;33.10;92.40
45643;DHT22;31358;46.008;11.144;2023-07-09T12:25:27;33.20;92.90
45643;DHT22;31358;46.008;11.144;2023-07-09T12:27:53;33.30;92.70
45643;DHT22;31358;46.008;11.144;2023-07-09T12:30:19;33.20;91.40
45643;DHT22;31358;46.008;11.144;2023-07-09T12:32:50;33.30;91.20
45643;DHT22;31358;46.008;11.144;2023-07-09T12:35:18;33.30;91.60
45643;DHT22;31358;46.008;11.144;2023-07-09T12:37:46;33.60;92.90
45643;DHT22;31358;46.008;11.144;2023-07-09T12:40:23;33.30;90.80
45643;DHT22;31358;46.008;11.144;2023-07-09T12:42:52;33.40;91.60
45643;DHT22;31358;46.008;11.144;2023-07-09T12:45:21;33.60;92.70
45643;DHT22;31358;46.008;11.144;2023-07-09T12:47:49;33.60;92.30
45643;DHT22;31358;46.008;11.144;2023-07-09T12:50:28;33.50;90.30
45643;DHT22;31358;46.008;11.144;2023-07-09T12:52:56;33.70;91.40
45643;DHT22;31358;46.008;11.144;2023-07-09T12:55:24;33.80;91.70
45643;DHT22;31358;46.008;11.144;2023-07-09T12:57:51;33.80;91.30
45643;DHT22;31358;46.008;11.144;2023-07-09T13:00:18;33.80;91.50
45643;DHT22;31358;46.008;11.144;2023-07-09T13:02:44;33.70;91.70
45643;DHT22;31358;46.008;11.144;2023-07-09T13:05:22;33.70;90.80
45643;DHT22;31358;46.008;11.144;2023-07-09T13:07:54;33.80;91.50
45643;DHT22;31358;46.008;11.144;2023-07-09T13:10:25;33.90;91.50
45643;DHT22;31358;46.008;11.144;2023-07-09T13:12:54;33.70;91.20
45643;DHT22;31358;46.008;11.144;2023-07-09T13:18:04;33.50;90.90
45643;DHT22;31358;46.008;11.144;2023-07-09T13:20:31;33.50;91.50
45643;DHT22;31358;46.008;11.144;2023-07-09T13:22:58;33.90;91.90
45643;DHT22;31358;46.008;11.144;2023-07-09T13:25:24;33.90;91.00
45643;DHT22;31358;46.008;11.144;2023-07-09T13:27:50;33.70;90.80
45643;DHT22;31358;46.008;11.144;2023-07-09T13:30:16;33.70;90.70
45643;DHT22;31358;46.008;11.144;2023-07-09T13:32:48;33.90;90.30
45643;DHT22;31358;46.008;11.144;2023-07-09T13:35:16;33.80;90.20
45643;DHT22;31358;46.008;11.144;2023-07-09T13:37:43;34.10;90.40
45643;DHT22;31358;46.008;11.144;2023-07-09T13:40:15;33.90;90.00
45643;DHT22;31358;46.008;11.144;2023-07-09T13:42:43;33.90;90.40
45643;DHT22;31358;46.008;11.144;2023-07-09T13:45:35;33.70;90.90
45643;DHT22;31358;46.008;11.144;2023-07-09T13:48:01;33.70;90.90
45643;DHT22;31358;46.008;11.144;2023-07-09T13:50:26;33.60;91.10
45643;DHT22;31358;46.008;11.144;2023-07-09T13:52:52;33.80;91.30
45643;DHT22;31358;46.008;11.144;2023-07-09T13:55:23;33.90;92.10
45643;DHT22;31358;46.008;11.144;2023-07-09T13:57:49;34.10;91.50
45643;DHT22;31358;46.008;11.144;2023-07-09T14:00:16;33.80;91.30
45643;DHT22;31358;46.008;11.144;2023-07-09T14:02:42;33.80;91.70
45643;DHT22;31358;46.008;11.144;2023-07-09T14:05:11;33.90;91.80
45643;DHT22;31358;46.008;11.144;2023-07-09T14:07:40;33.70;92.30
45643;DHT22;31358;46.008;11.144;2023-07-09T14:10:14;33.70;92.30
45643;DHT22;31358;46.008;11.144;2023-07-09T14:12:47;33.70;92.10
45643;DHT22;31358;46.008;11.144;2023-07-09T14:15:18;33.60;92.50
45643;DHT22;31358;46.008;11.144;2023-07-09T14:17:44;33.60;92.70
45643;DHT22;31358;46.008;11.144;2023-07-09T14:20:16;33.60;92.50
45643;DHT22;31358;46.008;11.144;2023-07-09T14:22:42;33.90;92.20
45643;DHT22;31358;46.008;11.144;2023-07-09T14:25:16;33.80;92.40
45643;DHT22;31358;46.008;11.144;2023-07-09T14:27:42;33.90;92.40
45643;DHT22;31358;46.008;11.144;2023-07-09T14:30:13;33.80;92.60
45643;DHT22;31358;46.008;11.144;2023-07-09T14:32:40;33.70;92.50
45643;DHT22;31358;46.008;11.144;2023-07-09T14:35:17;33.70;92.80
45643;DHT22;31358;46.008;11.144;2023-07-09T14:37:44;33.60;92.40
45643;DHT22;31358;46.008;11.144;2023-07-09T14:40:11;33.50;92.40
45643;DHT22;31358;46.008;11.144;2023-07-09T14:42:38;33.50;92.60
45643;DHT22;31358;46.008;11.144;2023-07-09T14:45:09;33.60;92.40
45643;DHT22;31358;46.008;11.144;2023-07-09T14:47:41;33.70;92.00
45643;DHT22;31358;46.008;11.144;2023-07-09T14:50:07;33.60;91.60
45643;DHT22;31358;46.008;11.144;2023-07-09T14:52:33;33.70;92.10
45643;DHT22;31358;46.008;11.144;2023-07-09T14:54:59;33.60;91.70
45643;DHT22;31358;46.008;11.144;2023-07-09T14:57:26;33.60;92.20
45643;DHT22;31358;46.008;11.144;2023-07-09T14:59:53;33.80;92.10
45643;DHT22;31358;46.008;11.144;2023-07-09T15:02:39;33.80;92.40
45643;DHT22;31358;46.008;11.144;2023-07-09T15:05:22;33.70;92.10
45643;DHT22;31358;46.008;11.144;2023-07-09T15:07:48;33.70;91.90
45643;DHT22;31358;46.008;11.144;2023-07-09T15:10:20;33.70;91.90
45643;DHT22;31358;46.008;11.144;2023-07-09T15:12:47;33.60;91.40
45643;DHT22;31358;46.008;11.144;2023-07-09T15:17:50;33.50;92.10
45643;DHT22;31358;46.008;11.144;2023-07-09T15:20:19;33.40;92.00
45643;DHT22;31358;46.008;11.144;2023-07-09T15:22:46;33.50;91.70
45643;DHT22;31358;46.008;11.144;2023-07-09T15:25:19;33.50;91.80
45643;DHT22;31358;46.008;11.144;2023-07-09T15:27:45;33.50;91.90
45643;DHT22;31358;46.008;11.144;2023-07-09T15:30:22;33.60;92.00
45643;DHT22;31358;46.008;11.144;2023-07-09T15:32:49;33.50;91.90
45643;DHT22;31358;46.008;11.144;2023-07-09T15:35:16;33.40;91.80
45643;DHT22;31358;46.008;11.144;2023-07-09T15:37:43;33.30;91.70
45643;DHT22;31358;46.008;11.144;2023-07-09T15:40:28;33.30;91.80
45643;DHT22;31358;46.008;11.144;2023-07-09T15:43:05;33.20;91.90
45643;DHT22;31358;46.008;11.144;2023-07-09T15:45:31;33.30;92.10
45643;DHT22;31358;46.008;11.144;2023-07-09T15:47:56;33.40;91.60
45643;DHT22;31358;46.008;11.144;2023-07-09T15:50:26;33.20;91.50
45643;DHT22;31358;46.008;11.144;2023-07-09T15:52:53;33.20;91.80
45643;DHT22;31358;46.008;11.144;2023-07-09T15:55:22;32.90;91.30
45643;DHT22;31358;46.008;11.144;2023-07-09T15:57:51;32.90;91.60
45643;DHT22;31358;46.008;11.144;2023-07-09T16:00:24;33.10;91.70
45643;DHT22;31358;46.008;11.144;2023-07-09T16:02:51;33.10;91.80
45643;DHT22;31358;46.008;11.144;2023-07-09T16:05:24;33.20;92.00
45643;DHT22;31358;46.008;11.144;2023-07-09T16:07:52;33.30;91.50
45643;DHT22;31358;46.008;11.144;2023-07-09T16:10:19;33.20;91.30
45643;DHT22;31358;46.008;11.144;2023-07-09T16:12:49;33.10;91.50
45643;DHT22;31358;46.008;11.144;2023-07-09T16:15:17;33.10;91.30
45643;DHT22;31358;46.008;11.144;2023-07-09T16:17:43;32.90;91.10